This is the latest recevied weather packets stored in our database for station/object K5GTX. If no packets are shown the sender has not sent any weather packets the latest 10 day(s).
| Time | Temp. | Humidity | Pressure | Rain* | Wind** | Luminosity | Snow |
|---|---|---|---|---|---|---|---|
| 1777475682 | 15° C | 99% | 1022.8 hPa | 0 mm | - | 40 W/m² | - |
| 1777475379 | 15.56° C | 99% | 1022.6 hPa | 0 mm | - | 11 W/m² | - |
| 1777475079 | 15.56° C | 99% | 1022.8 hPa | 0 mm | - | 13 W/m² | - |
| 1777474776 | 15.56° C | 99% | 1022.3 hPa | 0 mm | - | 45 W/m² | - |
| 1777474472 | 15° C | 99% | 1022.2 hPa | 0 mm | - | 50 W/m² | - |
| 1777474168 | 15.56° C | 99% | 1022.1 hPa | 0 mm | - | 57 W/m² | - |
| 1777473867 | 15° C | 99% | 1022 hPa | 0 mm | - | 65 W/m² | - |
| 1777473564 | 15° C | 99% | 1022 hPa | 0 mm | - | 54 W/m² | - |
| 1777473259 | 15° C | 99% | 1022.3 hPa | 0 mm | - | 17 W/m² | - |
| 1777472955 | 15° C | 99% | 1022 hPa | 0 mm | - | 45 W/m² | - |
| 1777472652 | 15° C | 99% | 1021.7 hPa | 0 mm | - | 62 W/m² | - |
| 1777472348 | 15° C | 99% | 1021.9 hPa | 0 mm | - | 46 W/m² | - |
| 1777472046 | 15° C | 99% | 1021.7 hPa | 0 mm | - | 53 W/m² | - |
| 1777471741 | 15° C | 99% | 1021.7 hPa | 0 mm | - | 49 W/m² | - |
| 1777471438 | 15° C | 99% | 1021.9 hPa | 0 mm | - | 34 W/m² | - |
| 1777471135 | 15° C | 99% | 1021.7 hPa | 0 mm | - | 35 W/m² | - |
| 1777470832 | 15° C | 99% | 1022 hPa | 0 mm | - | 29 W/m² | - |
| 1777470529 | 15° C | 99% | 1022.1 hPa | 0 mm | - | 32 W/m² | - |
| 1777470225 | 15° C | 99% | 1021.8 hPa | 0 mm | - | 29 W/m² | - |
| 1777469921 | 15° C | 99% | 1021.9 hPa | 0 mm | - | 24 W/m² | - |
| 1777469617 | 15° C | 99% | 1022 hPa | 0 mm | - | 24 W/m² | - |
| 1777469312 | 15° C | 99% | 1022 hPa | 0 mm | - | 17 W/m² | - |
| 1777469007 | 15° C | 99% | 1022 hPa | 0 mm | - | 18 W/m² | - |
| 1777468703 | 15° C | 99% | 1021.9 hPa | 0 mm | - | 13 W/m² | - |
| 1777468400 | 15° C | 99% | 1021.7 hPa | 0 mm | - | 18 W/m² | - |
* Rain latest hour (hover to see other rain measurements)
** Current wind speed in m/s (hover to see current wind gust speed)